sensor_id;sensor_type;location;lat;lon;timestamp;temperature;humidity
52273;DHT22;38227;50.942;4.016;2023-03-11T00:00:16;3.10;99.90
52273;DHT22;38227;50.942;4.016;2023-03-11T00:02:47;2.80;99.90
52273;DHT22;38227;50.942;4.016;2023-03-11T00:05:26;3.00;99.90
52273;DHT22;38227;50.942;4.016;2023-03-11T00:07:55;3.00;99.90
52273;DHT22;38227;50.942;4.016;2023-03-11T00:10:32;3.00;99.90
52273;DHT22;38227;50.942;4.016;2023-03-11T00:13:00;3.00;99.90
52273;DHT22;38227;50.942;4.016;2023-03-11T00:15:30;3.00;99.90
52273;DHT22;38227;50.942;4.016;2023-03-11T00:18:17;3.00;99.90
52273;DHT22;38227;50.942;4.016;2023-03-11T00:20:47;3.00;99.90
52273;DHT22;38227;50.942;4.016;2023-03-11T00:23:28;2.90;99.90
52273;DHT22;38227;50.942;4.016;2023-03-11T00:25:57;2.80;99.90
52273;DHT22;38227;50.942;4.016;2023-03-11T00:28:38;3.00;99.90
52273;DHT22;38227;50.942;4.016;2023-03-11T00:31:11;3.00;99.90
52273;DHT22;38227;50.942;4.016;2023-03-11T00:33:40;2.80;99.90
52273;DHT22;38227;50.942;4.016;2023-03-11T00:36:31;2.70;99.90
52273;DHT22;38227;50.942;4.016;2023-03-11T00:39:03;2.70;99.90
52273;DHT22;38227;50.942;4.016;2023-03-11T00:41:33;2.80;99.90
52273;DHT22;38227;50.942;4.016;2023-03-11T00:44:04;2.70;99.90
52273;DHT22;38227;50.942;4.016;2023-03-11T00:46:51;2.60;99.90
52273;DHT22;38227;50.942;4.016;2023-03-11T00:49:20;2.60;99.90
52273;DHT22;38227;50.942;4.016;2023-03-11T00:51:52;2.50;99.90
52273;DHT22;38227;50.942;4.016;2023-03-11T00:54:21;2.50;99.90
52273;DHT22;38227;50.942;4.016;2023-03-11T00:56:51;2.60;99.90
52273;DHT22;38227;50.942;4.016;2023-03-11T00:59:23;2.60;99.90
52273;DHT22;38227;50.942;4.016;2023-03-11T01:01:53;2.50;99.90
52273;DHT22;38227;50.942;4.016;2023-03-11T01:04:25;2.60;99.90
52273;DHT22;38227;50.942;4.016;2023-03-11T01:06:55;2.50;99.90
52273;DHT22;38227;50.942;4.016;2023-03-11T01:09:24;2.50;99.90
52273;DHT22;38227;50.942;4.016;2023-03-11T01:12:05;2.70;99.90
52273;DHT22;38227;50.942;4.016;2023-03-11T01:14:38;2.70;99.90
52273;DHT22;38227;50.942;4.016;2023-03-11T01:17:08;2.70;99.90
52273;DHT22;38227;50.942;4.016;2023-03-11T01:19:40;2.70;99.90
52273;DHT22;38227;50.942;4.016;2023-03-11T01:22:14;2.80;99.90
52273;DHT22;38227;50.942;4.016;2023-03-11T01:24:52;2.80;99.90
52273;DHT22;38227;50.942;4.016;2023-03-11T01:27:33;2.80;99.90
52273;DHT22;38227;50.942;4.016;2023-03-11T01:30:13;2.70;99.90
52273;DHT22;38227;50.942;4.016;2023-03-11T01:32:46;2.70;99.90
52273;DHT22;38227;50.942;4.016;2023-03-11T01:35:23;2.60;99.90
52273;DHT22;38227;50.942;4.016;2023-03-11T01:38:03;2.60;99.90
52273;DHT22;38227;50.942;4.016;2023-03-11T01:40:43;2.70;99.90
52273;DHT22;38227;50.942;4.016;2023-03-11T01:49:16;2.70;99.90
52273;DHT22;38227;50.942;4.016;2023-03-11T01:51:59;2.80;99.90
52273;DHT22;38227;50.942;4.016;2023-03-11T01:54:32;2.80;99.90
52273;DHT22;38227;50.942;4.016;2023-03-11T01:57:11;2.70;99.90
52273;DHT22;38227;50.942;4.016;2023-03-11T01:59:46;2.80;99.90
52273;DHT22;38227;50.942;4.016;2023-03-11T02:02:31;2.80;99.90
52273;DHT22;38227;50.942;4.016;2023-03-11T02:05:04;2.90;99.90
52273;DHT22;38227;50.942;4.016;2023-03-11T02:07:40;3.00;99.90
52273;DHT22;38227;50.942;4.016;2023-03-11T02:10:11;2.90;99.90
52273;DHT22;38227;50.942;4.016;2023-03-11T02:12:45;2.90;99.90
52273;DHT22;38227;50.942;4.016;2023-03-11T02:15:26;2.80;99.90
52273;DHT22;38227;50.942;4.016;2023-03-11T02:17:56;3.00;99.90
52273;DHT22;38227;50.942;4.016;2023-03-11T02:20:53;2.90;99.90
52273;DHT22;38227;50.942;4.016;2023-03-11T02:23:33;2.80;99.90
52273;DHT22;38227;50.942;4.016;2023-03-11T02:26:21;2.80;99.90
52273;DHT22;38227;50.942;4.016;2023-03-11T02:28:54;2.90;99.90
52273;DHT22;38227;50.942;4.016;2023-03-11T02:31:24;3.00;99.90
52273;DHT22;38227;50.942;4.016;2023-03-11T02:33:58;3.00;99.90
52273;DHT22;38227;50.942;4.016;2023-03-11T02:36:35;3.10;99.90
52273;DHT22;38227;50.942;4.016;2023-03-11T02:39:06;3.20;99.90
52273;DHT22;38227;50.942;4.016;2023-03-11T02:41:41;3.30;99.90
52273;DHT22;38227;50.942;4.016;2023-03-11T02:44:14;3.30;99.90
52273;DHT22;38227;50.942;4.016;2023-03-11T02:46:46;3.30;99.90
52273;DHT22;38227;50.942;4.016;2023-03-11T02:49:17;3.30;99.90
52273;DHT22;38227;50.942;4.016;2023-03-11T02:51:47;3.50;99.90
52273;DHT22;38227;50.942;4.016;2023-03-11T02:54:21;3.50;99.90
52273;DHT22;38227;50.942;4.016;2023-03-11T02:56:52;3.50;99.90
52273;DHT22;38227;50.942;4.016;2023-03-11T02:59:24;3.40;99.90
52273;DHT22;38227;50.942;4.016;2023-03-11T03:02:02;3.40;99.90
52273;DHT22;38227;50.942;4.016;2023-03-11T03:04:31;3.30;99.90
52273;DHT22;38227;50.942;4.016;2023-03-11T03:07:03;3.20;99.90
52273;DHT22;38227;50.942;4.016;2023-03-11T03:09:33;3.10;99.90
52273;DHT22;38227;50.942;4.016;2023-03-11T03:12:04;3.10;99.90
52273;DHT22;38227;50.942;4.016;2023-03-11T03:14:40;3.10;99.90
52273;DHT22;38227;50.942;4.016;2023-03-11T03:17:18;3.10;99.90
52273;DHT22;38227;50.942;4.016;2023-03-11T03:19:47;3.10;99.90
52273;DHT22;38227;50.942;4.016;2023-03-11T03:22:21;3.10;99.90
52273;DHT22;38227;50.942;4.016;2023-03-11T03:24:55;3.30;99.90
52273;DHT22;38227;50.942;4.016;2023-03-11T03:27:36;3.50;99.90
52273;DHT22;38227;50.942;4.016;2023-03-11T03:30:07;3.50;99.90
52273;DHT22;38227;50.942;4.016;2023-03-11T03:32:43;3.70;99.90
52273;DHT22;38227;50.942;4.016;2023-03-11T03:35:12;3.70;99.90
52273;DHT22;38227;50.942;4.016;2023-03-11T03:37:51;3.70;99.90
52273;DHT22;38227;50.942;4.016;2023-03-11T03:40:23;3.80;99.90
52273;DHT22;38227;50.942;4.016;2023-03-11T03:42:58;3.80;99.90
52273;DHT22;38227;50.942;4.016;2023-03-11T03:45:35;3.50;99.90
52273;DHT22;38227;50.942;4.016;2023-03-11T03:48:06;3.50;99.90
52273;DHT22;38227;50.942;4.016;2023-03-11T03:50:47;3.60;99.90
52273;DHT22;38227;50.942;4.016;2023-03-11T03:53:29;3.50;99.90
52273;DHT22;38227;50.942;4.016;2023-03-11T03:56:04;3.60;99.90
52273;DHT22;38227;50.942;4.016;2023-03-11T03:58:44;3.60;99.90
52273;DHT22;38227;50.942;4.016;2023-03-11T04:01:23;3.50;99.90
52273;DHT22;38227;50.942;4.016;2023-03-11T04:04:04;3.40;99.90
52273;DHT22;38227;50.942;4.016;2023-03-11T04:06:42;3.40;99.90
52273;DHT22;38227;50.942;4.016;2023-03-11T04:09:22;3.50;99.90
52273;DHT22;38227;50.942;4.016;2023-03-11T04:12:12;3.60;99.90
52273;DHT22;38227;50.942;4.016;2023-03-11T04:14:44;3.50;99.90
52273;DHT22;38227;50.942;4.016;2023-03-11T04:17:14;3.40;99.90
52273;DHT22;38227;50.942;4.016;2023-03-11T04:20:02;3.30;99.90
52273;DHT22;38227;50.942;4.016;2023-03-11T04:22:33;3.30;99.90
52273;DHT22;38227;50.942;4.016;2023-03-11T04:25:07;3.20;99.90
52273;DHT22;38227;50.942;4.016;2023-03-11T04:27:39;3.10;99.90
52273;DHT22;38227;50.942;4.016;2023-03-11T04:30:11;3.10;99.90
52273;DHT22;38227;50.942;4.016;2023-03-11T04:32:39;3.00;99.90
52273;DHT22;38227;50.942;4.016;2023-03-11T04:35:12;3.00;99.90
52273;DHT22;38227;50.942;4.016;2023-03-11T04:37:40;3.00;99.90
52273;DHT22;38227;50.942;4.016;2023-03-11T04:40:11;2.90;99.90
52273;DHT22;38227;50.942;4.016;2023-03-11T04:42:40;2.90;99.90
52273;DHT22;38227;50.942;4.016;2023-03-11T04:45:11;2.90;99.90
52273;DHT22;38227;50.942;4.016;2023-03-11T04:47:40;2.90;99.90
52273;DHT22;38227;50.942;4.016;2023-03-11T04:50:09;2.80;99.90
52273;DHT22;38227;50.942;4.016;2023-03-11T04:52:39;2.70;99.90
52273;DHT22;38227;50.942;4.016;2023-03-11T04:55:09;2.90;99.90
52273;DHT22;38227;50.942;4.016;2023-03-11T04:57:41;2.90;99.90
52273;DHT22;38227;50.942;4.016;2023-03-11T05:00:10;2.70;99.90
52273;DHT22;38227;50.942;4.016;2023-03-11T05:02:43;2.60;99.90
52273;DHT22;38227;50.942;4.016;2023-03-11T05:05:12;2.60;99.90
52273;DHT22;38227;50.942;4.016;2023-03-11T05:08:02;2.60;99.90
52273;DHT22;38227;50.942;4.016;2023-03-11T05:10:32;2.60;99.90
52273;DHT22;38227;50.942;4.016;2023-03-11T05:13:11;2.50;99.90
52273;DHT22;38227;50.942;4.016;2023-03-11T05:15:52;2.40;99.90
52273;DHT22;38227;50.942;4.016;2023-03-11T05:18:27;2.50;99.90
52273;DHT22;38227;50.942;4.016;2023-03-11T05:20:57;2.50;99.90
52273;DHT22;38227;50.942;4.016;2023-03-11T05:23:29;2.40;99.90
52273;DHT22;38227;50.942;4.016;2023-03-11T05:25:58;2.30;99.90
52273;DHT22;38227;50.942;4.016;2023-03-11T05:28:37;2.30;99.90
52273;DHT22;38227;50.942;4.016;2023-03-11T05:31:09;2.40;99.90
52273;DHT22;38227;50.942;4.016;2023-03-11T05:33:47;2.50;99.90
52273;DHT22;38227;50.942;4.016;2023-03-11T05:36:16;2.50;99.90
52273;DHT22;38227;50.942;4.016;2023-03-11T05:38:55;2.40;99.90
52273;DHT22;38227;50.942;4.016;2023-03-11T05:41:25;2.40;99.90
52273;DHT22;38227;50.942;4.016;2023-03-11T05:43:58;2.30;99.90
52273;DHT22;38227;50.942;4.016;2023-03-11T05:46:28;2.30;99.90
52273;DHT22;38227;50.942;4.016;2023-03-11T05:49:03;2.20;99.90
52273;DHT22;38227;50.942;4.016;2023-03-11T05:51:31;2.00;99.90
52273;DHT22;38227;50.942;4.016;2023-03-11T05:54:11;2.00;99.90
52273;DHT22;38227;50.942;4.016;2023-03-11T05:56:42;2.10;99.90
52273;DHT22;38227;50.942;4.016;2023-03-11T05:59:13;2.20;99.90
52273;DHT22;38227;50.942;4.016;2023-03-11T06:01:50;2.50;99.90
52273;DHT22;38227;50.942;4.016;2023-03-11T06:04:20;2.60;99.90
52273;DHT22;38227;50.942;4.016;2023-03-11T06:06:54;2.40;99.90
52273;DHT22;38227;50.942;4.016;2023-03-11T06:09:29;2.30;99.90
52273;DHT22;38227;50.942;4.016;2023-03-11T06:11:58;2.20;99.90
52273;DHT22;38227;50.942;4.016;2023-03-11T06:14:28;2.20;99.90
52273;DHT22;38227;50.942;4.016;2023-03-11T06:17:11;2.10;99.90
52273;DHT22;38227;50.942;4.016;2023-03-11T06:19:40;2.10;99.90
52273;DHT22;38227;50.942;4.016;2023-03-11T06:22:20;2.10;99.90
52273;DHT22;38227;50.942;4.016;2023-03-11T06:24:49;2.20;99.90
52273;DHT22;38227;50.942;4.016;2023-03-11T06:27:18;2.30;99.90
52273;DHT22;38227;50.942;4.016;2023-03-11T06:29:52;2.70;99.90
52273;DHT22;38227;50.942;4.016;2023-03-11T06:32:29;2.90;99.90
52273;DHT22;38227;50.942;4.016;2023-03-11T06:35:02;2.90;99.90
52273;DHT22;38227;50.942;4.016;2023-03-11T06:37:36;2.80;99.90
52273;DHT22;38227;50.942;4.016;2023-03-11T06:40:15;2.90;99.90
52273;DHT22;38227;50.942;4.016;2023-03-11T06:42:50;2.90;99.90
52273;DHT22;38227;50.942;4.016;2023-03-11T06:45:19;2.90;99.90
52273;DHT22;38227;50.942;4.016;2023-03-11T06:47:52;3.00;99.90
52273;DHT22;38227;50.942;4.016;2023-03-11T06:50:22;3.10;99.90
52273;DHT22;38227;50.942;4.016;2023-03-11T06:53:00;3.20;99.90
52273;DHT22;38227;50.942;4.016;2023-03-11T06:55:38;3.20;99.90
52273;DHT22;38227;50.942;4.016;2023-03-11T06:58:09;3.40;99.90
52273;DHT22;38227;50.942;4.016;2023-03-11T07:00:45;3.50;99.90
52273;DHT22;38227;50.942;4.016;2023-03-11T07:03:17;3.50;99.90
52273;DHT22;38227;50.942;4.016;2023-03-11T07:05:51;3.50;99.90
52273;DHT22;38227;50.942;4.016;2023-03-11T07:08:40;3.60;99.90
52273;DHT22;38227;50.942;4.016;2023-03-11T07:11:22;3.90;99.90
52273;DHT22;38227;50.942;4.016;2023-03-11T07:13:53;4.10;99.90
52273;DHT22;38227;50.942;4.016;2023-03-11T07:16:28;4.20;99.90
52273;DHT22;38227;50.942;4.016;2023-03-11T07:19:09;4.30;99.90
52273;DHT22;38227;50.942;4.016;2023-03-11T07:21:45;4.20;99.90
52273;DHT22;38227;50.942;4.016;2023-03-11T07:24:20;4.80;99.90
52273;DHT22;38227;50.942;4.016;2023-03-11T07:26:51;6.10;99.90
52273;DHT22;38227;50.942;4.016;2023-03-11T07:29:26;7.90;99.90
52273;DHT22;38227;50.942;4.016;2023-03-11T07:32:03;9.80;99.90
52273;DHT22;38227;50.942;4.016;2023-03-11T07:34:50;11.10;99.90
52273;DHT22;38227;50.942;4.016;2023-03-11T07:37:21;11.80;99.80
52273;DHT22;38227;50.942;4.016;2023-03-11T07:40:02;12.20;98.20
52273;DHT22;38227;50.942;4.016;2023-03-11T07:42:40;13.00;96.90
52273;DHT22;38227;50.942;4.016;2023-03-11T07:45:27;13.50;94.30
52273;DHT22;38227;50.942;4.016;2023-03-11T07:47:58;13.80;93.50
52273;DHT22;38227;50.942;4.016;2023-03-11T07:50:45;13.90;91.40
52273;DHT22;38227;50.942;4.016;2023-03-11T07:53:20;14.20;91.40
52273;DHT22;38227;50.942;4.016;2023-03-11T07:55:57;14.10;91.20
52273;DHT22;38227;50.942;4.016;2023-03-11T07:58:31;14.70;90.20
52273;DHT22;38227;50.942;4.016;2023-03-11T08:01:08;14.80;88.70
52273;DHT22;38227;50.942;4.016;2023-03-11T08:03:49;15.00;88.30
52273;DHT22;38227;50.942;4.016;2023-03-11T08:06:27;14.60;88.40
52273;DHT22;38227;50.942;4.016;2023-03-11T08:08:58;15.00;88.30
52273;DHT22;38227;50.942;4.016;2023-03-11T08:11:31;15.00;89.40
52273;DHT22;38227;50.942;4.016;2023-03-11T08:14:02;14.90;88.00
52273;DHT22;38227;50.942;4.016;2023-03-11T08:16:44;14.80;89.20
52273;DHT22;38227;50.942;4.016;2023-03-11T08:19:13;14.80;90.30
52273;DHT22;38227;50.942;4.016;2023-03-11T08:21:54;14.40;91.10
52273;DHT22;38227;50.942;4.016;2023-03-11T08:24:24;14.50;90.50
52273;DHT22;38227;50.942;4.016;2023-03-11T08:26:57;14.30;91.90
52273;DHT22;38227;50.942;4.016;2023-03-11T08:29:25;13.50;93.70
52273;DHT22;38227;50.942;4.016;2023-03-11T08:32:04;13.40;93.40
52273;DHT22;38227;50.942;4.016;2023-03-11T08:34:34;13.50;93.70
52273;DHT22;38227;50.942;4.016;2023-03-11T08:37:13;14.10;92.40
52273;DHT22;38227;50.942;4.016;2023-03-11T08:39:44;14.70;92.00
52273;DHT22;38227;50.942;4.016;2023-03-11T08:42:16;15.20;89.90
52273;DHT22;38227;50.942;4.016;2023-03-11T08:44:45;16.10;85.90
52273;DHT22;38227;50.942;4.016;2023-03-11T08:47:18;16.10;86.30
52273;DHT22;38227;50.942;4.016;2023-03-11T08:49:50;15.80;86.00
52273;DHT22;38227;50.942;4.016;2023-03-11T08:52:19;16.50;83.50
52273;DHT22;38227;50.942;4.016;2023-03-11T08:54:49;16.90;81.20
52273;DHT22;38227;50.942;4.016;2023-03-11T08:57:22;17.00;80.50
52273;DHT22;38227;50.942;4.016;2023-03-11T08:59:51;15.90;83.60
52273;DHT22;38227;50.942;4.016;2023-03-11T09:02:30;16.30;84.20
52273;DHT22;38227;50.942;4.016;2023-03-11T09:04:59;16.10;82.60
52273;DHT22;38227;50.942;4.016;2023-03-11T09:07:32;15.70;85.80
52273;DHT22;38227;50.942;4.016;2023-03-11T09:10:01;16.80;79.80
52273;DHT22;38227;50.942;4.016;2023-03-11T09:12:40;16.60;82.30
52273;DHT22;38227;50.942;4.016;2023-03-11T09:15:10;15.50;87.00
52273;DHT22;38227;50.942;4.016;2023-03-11T09:17:52;15.20;84.40
52273;DHT22;38227;50.942;4.016;2023-03-11T09:20:21;15.40;81.70
52273;DHT22;38227;50.942;4.016;2023-03-11T09:22:54;14.70;85.40
52273;DHT22;38227;50.942;4.016;2023-03-11T09:25:25;14.30;89.20
52273;DHT22;38227;50.942;4.016;2023-03-11T09:27:56;14.10;86.40
52273;DHT22;38227;50.942;4.016;2023-03-11T09:30:29;14.40;85.30
52273;DHT22;38227;50.942;4.016;2023-03-11T09:32:58;14.70;82.20
52273;DHT22;38227;50.942;4.016;2023-03-11T09:35:30;15.60;78.40
52273;DHT22;38227;50.942;4.016;2023-03-11T09:37:59;15.30;82.40
52273;DHT22;38227;50.942;4.016;2023-03-11T09:40:51;15.60;78.70
52273;DHT22;38227;50.942;4.016;2023-03-11T09:43:39;16.50;72.60
52273;DHT22;38227;50.942;4.016;2023-03-11T09:46:53;17.40;64.30
52273;DHT22;38227;50.942;4.016;2023-03-11T09:55:54;15.90;68.60
52273;DHT22;38227;50.942;4.016;2023-03-11T10:01:42;15.10;70.10
52273;DHT22;38227;50.942;4.016;2023-03-11T10:04:25;16.10;69.40
52273;DHT22;38227;50.942;4.016;2023-03-11T10:06:56;17.20;66.20
52273;DHT22;38227;50.942;4.016;2023-03-11T10:12:55;16.30;69.70
52273;DHT22;38227;50.942;4.016;2023-03-11T10:25:13;15.10;65.80
52273;DHT22;38227;50.942;4.016;2023-03-11T10:28:15;13.70;70.00
52273;DHT22;38227;50.942;4.016;2023-03-11T10:30:52;12.80;74.00
52273;DHT22;38227;50.942;4.016;2023-03-11T10:33:59;12.60;75.90
52273;DHT22;38227;50.942;4.016;2023-03-11T10:39:33;11.80;76.80
52273;DHT22;38227;50.942;4.016;2023-03-11T10:42:05;12.00;78.20
52273;DHT22;38227;50.942;4.016;2023-03-11T10:44:41;12.30;77.30
52273;DHT22;38227;50.942;4.016;2023-03-11T10:47:22;12.30;80.10
52273;DHT22;38227;50.942;4.016;2023-03-11T10:49:55;11.70;80.60
52273;DHT22;38227;50.942;4.016;2023-03-11T10:52:23;11.50;80.80
52273;DHT22;38227;50.942;4.016;2023-03-11T10:55:00;11.50;81.30
52273;DHT22;38227;50.942;4.016;2023-03-11T10:57:37;11.40;81.20
52273;DHT22;38227;50.942;4.016;2023-03-11T11:00:28;11.50;80.50
52273;DHT22;38227;50.942;4.016;2023-03-11T11:03:00;12.00;78.00
52273;DHT22;38227;50.942;4.016;2023-03-11T11:05:34;12.00;78.20
52273;DHT22;38227;50.942;4.016;2023-03-11T11:08:16;11.60;81.40
52273;DHT22;38227;50.942;4.016;2023-03-11T11:11:19;11.80;81.30
52273;DHT22;38227;50.942;4.016;2023-03-11T11:13:57;11.80;79.80
52273;DHT22;38227;50.942;4.016;2023-03-11T11:16:27;12.00;79.80
52273;DHT22;38227;50.942;4.016;2023-03-11T11:19:06;11.70;77.90
52273;DHT22;38227;50.942;4.016;2023-03-11T11:21:58;11.20;83.80
52273;DHT22;38227;50.942;4.016;2023-03-11T11:24:36;11.10;80.80
52273;DHT22;38227;50.942;4.016;2023-03-11T11:27:36;11.40;81.70
52273;DHT22;38227;50.942;4.016;2023-03-11T11:30:25;11.40;80.90
52273;DHT22;38227;50.942;4.016;2023-03-11T11:33:05;11.40;80.90
52273;DHT22;38227;50.942;4.016;2023-03-11T11:35:53;11.30;79.70
52273;DHT22;38227;50.942;4.016;2023-03-11T11:38:24;11.00;81.70
52273;DHT22;38227;50.942;4.016;2023-03-11T11:40:56;10.90;81.90
52273;DHT22;38227;50.942;4.016;2023-03-11T11:46:41;11.00;82.70
52273;DHT22;38227;50.942;4.016;2023-03-11T11:49:26;11.20;80.80
52273;DHT22;38227;50.942;4.016;2023-03-11T11:55:01;11.30;81.90
52273;DHT22;38227;50.942;4.016;2023-03-11T11:57:31;11.30;80.60
52273;DHT22;38227;50.942;4.016;2023-03-11T12:00:00;11.20;81.90
52273;DHT22;38227;50.942;4.016;2023-03-11T12:05:56;11.00;82.90
52273;DHT22;38227;50.942;4.016;2023-03-11T12:08:40;11.00;85.20
52273;DHT22;38227;50.942;4.016;2023-03-11T12:17:39;11.30;83.60
52273;DHT22;38227;50.942;4.016;2023-03-11T12:26:37;11.10;85.30
52273;DHT22;38227;50.942;4.016;2023-03-11T12:29:43;11.10;84.70
52273;DHT22;38227;50.942;4.016;2023-03-11T12:32:48;11.50;84.60
52273;DHT22;38227;50.942;4.016;2023-03-11T12:35:31;11.90;80.60
52273;DHT22;38227;50.942;4.016;2023-03-11T12:38:25;11.60;81.80
52273;DHT22;38227;50.942;4.016;2023-03-11T12:44:27;11.10;84.60
52273;DHT22;38227;50.942;4.016;2023-03-11T12:47:23;11.20;84.60
52273;DHT22;38227;50.942;4.016;2023-03-11T12:50:40;11.40;84.10
52273;DHT22;38227;50.942;4.016;2023-03-11T12:53:07;11.60;79.70
52273;DHT22;38227;50.942;4.016;2023-03-11T12:56:00;11.60;80.60
52273;DHT22;38227;50.942;4.016;2023-03-11T13:01:57;11.50;81.50
52273;DHT22;38227;50.942;4.016;2023-03-11T13:08:14;11.00;83.00
52273;DHT22;38227;50.942;4.016;2023-03-11T13:10:48;11.30;79.00
52273;DHT22;38227;50.942;4.016;2023-03-11T13:13:44;11.30;77.90
52273;DHT22;38227;50.942;4.016;2023-03-11T13:16:34;11.10;79.90
52273;DHT22;38227;50.942;4.016;2023-03-11T13:26:24;10.70;82.30
52273;DHT22;38227;50.942;4.016;2023-03-11T13:32:58;10.60;80.40
52273;DHT22;38227;50.942;4.016;2023-03-11T13:41:47;10.80;78.20
52273;DHT22;38227;50.942;4.016;2023-03-11T13:44:35;10.70;81.00
52273;DHT22;38227;50.942;4.016;2023-03-11T13:47:13;10.60;81.50
52273;DHT22;38227;50.942;4.016;2023-03-11T13:50:32;10.50;81.80
52273;DHT22;38227;50.942;4.016;2023-03-11T13:53:05;10.40;82.40
52273;DHT22;38227;50.942;4.016;2023-03-11T13:55:40;10.50;79.30
52273;DHT22;38227;50.942;4.016;2023-03-11T13:58:24;10.50;77.90
52273;DHT22;38227;50.942;4.016;2023-03-11T14:00:56;10.40;77.80
52273;DHT22;38227;50.942;4.016;2023-03-11T14:03:28;10.40;79.30
52273;DHT22;38227;50.942;4.016;2023-03-11T14:06:07;10.50;77.70
52273;DHT22;38227;50.942;4.016;2023-03-11T14:08:39;10.10;79.10
52273;DHT22;38227;50.942;4.016;2023-03-11T14:11:30;9.90;80.20
52273;DHT22;38227;50.942;4.016;2023-03-11T14:14:38;10.10;81.10
52273;DHT22;38227;50.942;4.016;2023-03-11T14:17:17;10.40;81.40
52273;DHT22;38227;50.942;4.016;2023-03-11T14:22:32;10.40;79.50
52273;DHT22;38227;50.942;4.016;2023-03-11T14:25:07;10.20;80.50
52273;DHT22;38227;50.942;4.016;2023-03-11T14:27:47;10.10;80.80
52273;DHT22;38227;50.942;4.016;2023-03-11T14:30:26;10.00;80.50
52273;DHT22;38227;50.942;4.016;2023-03-11T14:33:03;10.00;82.50
52273;DHT22;38227;50.942;4.016;2023-03-11T14:35:33;10.00;80.60
52273;DHT22;38227;50.942;4.016;2023-03-11T14:38:21;9.90;81.00
52273;DHT22;38227;50.942;4.016;2023-03-11T14:40:58;10.00;81.60
52273;DHT22;38227;50.942;4.016;2023-03-11T14:43:36;10.10;81.90
52273;DHT22;38227;50.942;4.016;2023-03-11T14:46:09;10.00;79.30
52273;DHT22;38227;50.942;4.016;2023-03-11T14:48:42;9.80;82.40
52273;DHT22;38227;50.942;4.016;2023-03-11T14:51:25;9.70;81.70
52273;DHT22;38227;50.942;4.016;2023-03-11T14:54:16;9.80;83.10
52273;DHT22;38227;50.942;4.016;2023-03-11T14:56:57;9.70;83.90
52273;DHT22;38227;50.942;4.016;2023-03-11T14:59:30;9.90;81.10
52273;DHT22;38227;50.942;4.016;2023-03-11T15:02:53;10.30;79.80
52273;DHT22;38227;50.942;4.016;2023-03-11T15:05:05;10.40;79.70
52273;DHT22;38227;50.942;4.016;2023-03-11T15:07:38;10.50;77.80
52273;DHT22;38227;50.942;4.016;2023-03-11T15:10:26;10.30;80.10
52273;DHT22;38227;50.942;4.016;2023-03-11T15:13:09;10.10;81.50
52273;DHT22;38227;50.942;4.016;2023-03-11T15:15:42;10.10;80.70
52273;DHT22;38227;50.942;4.016;2023-03-11T15:18:34;10.10;78.10
52273;DHT22;38227;50.942;4.016;2023-03-11T15:21:18;10.20;77.60
52273;DHT22;38227;50.942;4.016;2023-03-11T15:26:54;10.50;77.10
52273;DHT22;38227;50.942;4.016;2023-03-11T15:29:27;10.10;77.70
52273;DHT22;38227;50.942;4.016;2023-03-11T15:32:00;9.90;78.60
52273;DHT22;38227;50.942;4.016;2023-03-11T15:35:00;9.90;78.90
52273;DHT22;38227;50.942;4.016;2023-03-11T15:37:29;9.80;78.60
52273;DHT22;38227;50.942;4.016;2023-03-11T15:43:28;9.80;81.90
52273;DHT22;38227;50.942;4.016;2023-03-11T15:45:59;9.80;84.40
52273;DHT22;38227;50.942;4.016;2023-03-11T15:48:33;9.90;85.00
52273;DHT22;38227;50.942;4.016;2023-03-11T15:51:01;9.80;83.90
52273;DHT22;38227;50.942;4.016;2023-03-11T15:53:41;9.80;84.10
52273;DHT22;38227;50.942;4.016;2023-03-11T15:56:16;9.80;84.70
52273;DHT22;38227;50.942;4.016;2023-03-11T15:59:11;9.80;83.40
52273;DHT22;38227;50.942;4.016;2023-03-11T16:01:44;9.80;82.30
52273;DHT22;38227;50.942;4.016;2023-03-11T16:04:17;9.90;86.30
52273;DHT22;38227;50.942;4.016;2023-03-11T16:06:48;10.10;84.10
52273;DHT22;38227;50.942;4.016;2023-03-11T16:09:20;10.20;83.50
52273;DHT22;38227;50.942;4.016;2023-03-11T16:11:49;10.20;83.90
52273;DHT22;38227;50.942;4.016;2023-03-11T16:14:19;10.40;77.70
52273;DHT22;38227;50.942;4.016;2023-03-11T16:16:58;10.50;76.50
52273;DHT22;38227;50.942;4.016;2023-03-11T16:19:27;10.60;76.00
52273;DHT22;38227;50.942;4.016;2023-03-11T16:21:57;10.40;76.70
52273;DHT22;38227;50.942;4.016;2023-03-11T16:24:25;10.40;77.30
52273;DHT22;38227;50.942;4.016;2023-03-11T16:26:55;10.20;77.20
52273;DHT22;38227;50.942;4.016;2023-03-11T16:29:34;10.30;78.20
52273;DHT22;38227;50.942;4.016;2023-03-11T16:32:04;10.30;78.80
52273;DHT22;38227;50.942;4.016;2023-03-11T16:34:43;10.30;78.90
52273;DHT22;38227;50.942;4.016;2023-03-11T16:37:17;10.20;78.50
52273;DHT22;38227;50.942;4.016;2023-03-11T16:39:51;10.20;78.80
52273;DHT22;38227;50.942;4.016;2023-03-11T16:42:22;10.10;80.30
52273;DHT22;38227;50.942;4.016;2023-03-11T16:44:54;10.20;78.60
52273;DHT22;38227;50.942;4.016;2023-03-11T16:47:33;10.10;76.90
52273;DHT22;38227;50.942;4.016;2023-03-11T16:50:02;10.10;77.90
52273;DHT22;38227;50.942;4.016;2023-03-11T16:52:35;10.00;76.30
52273;DHT22;38227;50.942;4.016;2023-03-11T16:55:04;9.70;79.50
52273;DHT22;38227;50.942;4.016;2023-03-11T16:57:33;9.80;80.10
52273;DHT22;38227;50.942;4.016;2023-03-11T17:00:05;9.60;82.80
52273;DHT22;38227;50.942;4.016;2023-03-11T17:02:35;9.70;79.10
52273;DHT22;38227;50.942;4.016;2023-03-11T17:05:06;9.80;78.30
52273;DHT22;38227;50.942;4.016;2023-03-11T17:07:38;9.90;79.10
52273;DHT22;38227;50.942;4.016;2023-03-11T17:10:10;9.90;79.20
52273;DHT22;38227;50.942;4.016;2023-03-11T17:12:43;9.90;79.40
52273;DHT22;38227;50.942;4.016;2023-03-11T17:15:13;9.80;79.40
52273;DHT22;38227;50.942;4.016;2023-03-11T17:17:46;9.80;80.50
52273;DHT22;38227;50.942;4.016;2023-03-11T17:20:17;9.70;80.20
52273;DHT22;38227;50.942;4.016;2023-03-11T17:22:52;9.70;80.90
52273;DHT22;38227;50.942;4.016;2023-03-11T17:25:21;9.80;80.90
52273;DHT22;38227;50.942;4.016;2023-03-11T17:27:50;9.70;81.10
52273;DHT22;38227;50.942;4.016;2023-03-11T17:30:23;9.70;80.80
52273;DHT22;38227;50.942;4.016;2023-03-11T17:32:57;9.60;81.70
52273;DHT22;38227;50.942;4.016;2023-03-11T17:35:28;9.50;82.50
52273;DHT22;38227;50.942;4.016;2023-03-11T17:38:07;9.50;82.10
52273;DHT22;38227;50.942;4.016;2023-03-11T17:40:38;9.60;83.50
52273;DHT22;38227;50.942;4.016;2023-03-11T17:43:19;9.30;84.40
52273;DHT22;38227;50.942;4.016;2023-03-11T17:45:49;9.20;84.20
52273;DHT22;38227;50.942;4.016;2023-03-11T17:48:22;9.20;84.50
52273;DHT22;38227;50.942;4.016;2023-03-11T17:50:52;9.20;84.50
52273;DHT22;38227;50.942;4.016;2023-03-11T17:53:25;9.20;84.90
52273;DHT22;38227;50.942;4.016;2023-03-11T17:55:54;9.00;86.30
52273;DHT22;38227;50.942;4.016;2023-03-11T17:58:27;8.90;86.10
52273;DHT22;38227;50.942;4.016;2023-03-11T18:00:57;9.00;86.10
52273;DHT22;38227;50.942;4.016;2023-03-11T18:03:35;9.00;85.90
52273;DHT22;38227;50.942;4.016;2023-03-11T18:06:06;9.10;86.70